sensor_id;sensor_type;location;lat;lon;timestamp;pressure;altitude;pressure_sealevel;temperature;humidity
76416;BME280;65248;55.686;37.678;2022-12-04T09:26:30;103042.13;;;24.50;29.83
76416;BME280;65248;55.686;37.678;2022-12-04T09:28:58;103035.84;;;9.22;22.50
76416;BME280;65248;55.686;37.678;2022-12-04T09:31:24;103037.78;;;3.06;33.54
76416;BME280;65248;55.686;37.678;2022-12-04T09:33:50;102989.06;;;-0.78;37.49
76416;BME280;65248;55.686;37.678;2022-12-04T09:36:16;102995.56;;;-3.16;43.37
76416;BME280;65248;55.686;37.678;2022-12-04T09:38:43;102918.31;;;-4.28;45.48
76416;BME280;65248;55.686;37.678;2022-12-04T09:41:26;102956.81;;;-5.04;47.86
76416;BME280;65248;55.686;37.678;2022-12-04T09:47:05;103028.09;;;-6.28;54.36
76416;BME280;65248;55.686;37.678;2022-12-04T09:50:23;103024.81;;;-6.42;56.65
76416;BME280;65248;55.686;37.678;2022-12-04T09:53:09;103005.84;;;-7.11;57.29
76416;BME280;65248;55.686;37.678;2022-12-04T09:55:33;102967.97;;;-7.38;59.19
76416;BME280;65248;55.686;37.678;2022-12-04T09:58:04;103023.88;;;-6.95;58.25
76416;BME280;65248;55.686;37.678;2022-12-04T10:00:36;103015.59;;;-7.27;58.88
76416;BME280;65248;55.686;37.678;2022-12-04T10:03:06;102968.28;;;-7.64;60.11
76416;BME280;65248;55.686;37.678;2022-12-04T10:05:44;103020.72;;;-7.19;59.88
76416;BME280;65248;55.686;37.678;2022-12-04T10:08:26;103019.88;;;-7.21;59.57
76416;BME280;65248;55.686;37.678;2022-12-04T10:13:47;103011.13;;;-7.16;60.11
76416;BME280;65248;55.686;37.678;2022-12-04T10:19:14;103011.94;;;-7.11;59.51
76416;BME280;65248;55.686;37.678;2022-12-04T10:22:04;103011.06;;;-7.13;59.52
76416;BME280;65248;55.686;37.678;2022-12-04T10:27:17;102966.13;;;-7.30;59.78
76416;BME280;65248;55.686;37.678;2022-12-04T10:29:48;102985.88;;;-7.14;59.23
76416;BME280;65248;55.686;37.678;2022-12-04T10:32:21;103001.31;;;-6.99;59.73
76416;BME280;65248;55.686;37.678;2022-12-04T10:34:52;102999.47;;;-6.91;58.60
76416;BME280;65248;55.686;37.678;2022-12-04T10:37:18;102990.56;;;-6.77;58.35
76416;BME280;65248;55.686;37.678;2022-12-04T10:39:54;103002.25;;;-7.03;59.56
76416;BME280;65248;55.686;37.678;2022-12-04T10:42:37;102978.78;;;-7.03;58.74
76416;BME280;65248;55.686;37.678;2022-12-04T10:45:06;102976.09;;;-6.95;59.26
76416;BME280;65248;55.686;37.678;2022-12-04T10:47:32;102925.56;;;-7.49;59.46
76416;BME280;65248;55.686;37.678;2022-12-04T10:50:04;102968.66;;;-7.24;59.31
76416;BME280;65248;55.686;37.678;2022-12-04T10:52:37;102989.63;;;-7.35;60.63
76416;BME280;65248;55.686;37.678;2022-12-04T10:55:02;102977.25;;;-7.19;60.40
76416;BME280;65248;55.686;37.678;2022-12-04T10:57:43;102993.78;;;-7.20;60.67
76416;BME280;65248;55.686;37.678;2022-12-04T11:00:30;102996.31;;;-7.14;60.74
76416;BME280;65248;55.686;37.678;2022-12-04T11:02:59;102979.13;;;-7.27;60.28
76416;BME280;65248;55.686;37.678;2022-12-04T11:07:55;102992.44;;;-6.85;60.20
76416;BME280;65248;55.686;37.678;2022-12-04T11:10:44;102990.00;;;-6.96;60.11
76416;BME280;65248;55.686;37.678;2022-12-04T11:13:16;102985.56;;;-6.90;59.98
76416;BME280;65248;55.686;37.678;2022-12-04T11:15:47;103002.81;;;-6.82;60.04
76416;BME280;65248;55.686;37.678;2022-12-04T11:18:19;102959.81;;;-7.12;60.17
76416;BME280;65248;55.686;37.678;2022-12-04T11:21:15;102984.06;;;-7.06;60.54
76416;BME280;65248;55.686;37.678;2022-12-04T11:23:43;102973.69;;;-7.12;60.12
76416;BME280;65248;55.686;37.678;2022-12-04T11:26:09;102966.56;;;-6.99;60.34
76416;BME280;65248;55.686;37.678;2022-12-04T11:28:36;102991.97;;;-7.15;60.38
76416;BME280;65248;55.686;37.678;2022-12-04T11:31:05;102995.28;;;-7.02;60.41
76416;BME280;65248;55.686;37.678;2022-12-04T11:33:36;102928.03;;;-7.39;60.27
76416;BME280;65248;55.686;37.678;2022-12-04T11:36:17;102973.91;;;-7.27;61.43
76416;BME280;65248;55.686;37.678;2022-12-04T11:38:44;102980.72;;;-7.15;60.98
76416;BME280;65248;55.686;37.678;2022-12-04T11:41:23;102991.06;;;-7.11;61.39
76416;BME280;65248;55.686;37.678;2022-12-04T11:43:50;102985.34;;;-7.39;62.03
76416;BME280;65248;55.686;37.678;2022-12-04T11:46:21;102974.03;;;-7.36;62.77
76416;BME280;65248;55.686;37.678;2022-12-04T11:48:46;102968.69;;;-7.27;61.82
76416;BME280;65248;55.686;37.678;2022-12-04T11:56:46;102946.53;;;-7.61;62.56
76416;BME280;65248;55.686;37.678;2022-12-04T12:05:02;102965.38;;;-7.38;63.09
76416;BME280;65248;55.686;37.678;2022-12-04T12:24:27;102950.47;;;-7.99;65.19
76416;BME280;65248;55.686;37.678;2022-12-04T12:27:25;102971.19;;;-7.90;65.56
76416;BME280;65248;55.686;37.678;2022-12-04T12:30:08;102965.22;;;-7.99;65.99
76416;BME280;65248;55.686;37.678;2022-12-04T12:35:50;102934.25;;;-8.27;65.88
76416;BME280;65248;55.686;37.678;2022-12-04T12:40:59;102986.19;;;-8.18;66.44
76416;BME280;65248;55.686;37.678;2022-12-04T12:43:31;102868.09;;;-8.87;66.75
76416;BME280;65248;55.686;37.678;2022-12-04T12:57:18;102978.72;;;-8.49;67.69
76416;BME280;65248;55.686;37.678;2022-12-04T12:59:56;102938.22;;;-8.79;66.71
76416;BME280;65248;55.686;37.678;2022-12-04T13:02:35;102990.84;;;-8.48;67.04
76416;BME280;65248;55.686;37.678;2022-12-04T13:05:05;102983.91;;;-8.46;66.94
76416;BME280;65248;55.686;37.678;2022-12-04T13:10:15;102975.34;;;-8.64;67.23
76416;BME280;65248;55.686;37.678;2022-12-04T13:12:46;102942.59;;;-8.83;67.53
76416;BME280;65248;55.686;37.678;2022-12-04T13:15:17;102996.94;;;-8.54;67.45
76416;BME280;65248;55.686;37.678;2022-12-04T13:17:47;102971.94;;;-8.69;67.29
76416;BME280;65248;55.686;37.678;2022-12-04T13:20:22;102988.44;;;-8.74;67.92
76416;BME280;65248;55.686;37.678;2022-12-04T13:28:56;102991.91;;;-8.72;67.53
76416;BME280;65248;55.686;37.678;2022-12-04T13:42:41;102917.75;;;-9.26;68.52
76416;BME280;65248;55.686;37.678;2022-12-04T13:45:40;102985.94;;;-8.88;68.55
76416;BME280;65248;55.686;37.678;2022-12-04T13:48:07;102943.69;;;-9.20;68.00
76416;BME280;65248;55.686;37.678;2022-12-04T13:50:36;102985.94;;;-8.91;68.09
76416;BME280;65248;55.686;37.678;2022-12-04T13:53:01;102963.47;;;-8.98;68.74
76416;BME280;65248;55.686;37.678;2022-12-04T13:55:32;102998.97;;;-8.92;68.24
76416;BME280;65248;55.686;37.678;2022-12-04T14:00:39;102947.09;;;-9.11;67.45
76416;BME280;65248;55.686;37.678;2022-12-04T14:03:30;102946.22;;;-9.11;67.88
76416;BME280;65248;55.686;37.678;2022-12-04T14:06:02;102909.16;;;-9.34;67.37
76416;BME280;65248;55.686;37.678;2022-12-04T14:08:36;102982.59;;;-9.07;67.99
76416;BME280;65248;55.686;37.678;2022-12-04T14:11:17;102901.50;;;-9.59;68.39
76416;BME280;65248;55.686;37.678;2022-12-04T14:13:51;102898.78;;;-9.42;68.18
76416;BME280;65248;55.686;37.678;2022-12-04T14:19:00;102978.25;;;-9.03;68.08
76416;BME280;65248;55.686;37.678;2022-12-04T14:21:41;102980.84;;;-9.06;67.22
76416;BME280;65248;55.686;37.678;2022-12-04T14:24:28;102989.53;;;-9.07;68.06
76416;BME280;65248;55.686;37.678;2022-12-04T14:26:55;102925.63;;;-9.40;68.88
76416;BME280;65248;55.686;37.678;2022-12-04T14:29:37;102964.44;;;-9.14;68.61
76416;BME280;65248;55.686;37.678;2022-12-04T14:32:14;102923.88;;;-9.33;67.84
76416;BME280;65248;55.686;37.678;2022-12-04T14:34:40;102910.94;;;-9.46;68.37
76416;BME280;65248;55.686;37.678;2022-12-04T14:37:17;102898.06;;;-9.64;67.85
76416;BME280;65248;55.686;37.678;2022-12-04T14:39:45;102980.09;;;-9.26;68.56
76416;BME280;65248;55.686;37.678;2022-12-04T14:45:03;102961.03;;;-9.25;68.19
76416;BME280;65248;55.686;37.678;2022-12-04T14:53:11;102968.78;;;-9.15;67.63
76416;BME280;65248;55.686;37.678;2022-12-04T14:58:31;102932.69;;;-9.65;67.90
76416;BME280;65248;55.686;37.678;2022-12-04T15:01:03;102986.19;;;-9.33;67.52
76416;BME280;65248;55.686;37.678;2022-12-04T15:03:34;102966.28;;;-9.34;68.70
76416;BME280;65248;55.686;37.678;2022-12-04T15:06:01;102972.31;;;-9.32;68.74
76416;BME280;65248;55.686;37.678;2022-12-04T15:08:28;102965.41;;;-9.30;67.25
76416;BME280;65248;55.686;37.678;2022-12-04T15:10:54;102926.59;;;-9.62;67.84
76416;BME280;65248;55.686;37.678;2022-12-04T15:13:39;102958.53;;;-9.43;67.22
76416;BME280;65248;55.686;37.678;2022-12-04T15:16:21;102958.59;;;-9.56;68.27
76416;BME280;65248;55.686;37.678;2022-12-04T15:18:54;102935.28;;;-9.74;67.23
76416;BME280;65248;55.686;37.678;2022-12-04T15:21:20;102972.44;;;-9.54;68.36
76416;BME280;65248;55.686;37.678;2022-12-04T15:23:46;102917.19;;;-9.86;68.92
76416;BME280;65248;55.686;37.678;2022-12-04T15:26:16;102900.75;;;-9.86;67.84
76416;BME280;65248;55.686;37.678;2022-12-04T15:28:44;102968.97;;;-9.56;68.25
76416;BME280;65248;55.686;37.678;2022-12-04T15:31:22;102936.19;;;-9.75;68.59
76416;BME280;65248;55.686;37.678;2022-12-04T15:33:55;102949.13;;;-9.72;68.51
76416;BME280;65248;55.686;37.678;2022-12-04T15:36:53;102908.59;;;-10.03;69.98
76416;BME280;65248;55.686;37.678;2022-12-04T15:39:21;102974.19;;;-9.68;69.81
76416;BME280;65248;55.686;37.678;2022-12-04T15:48:38;102922.41;;;-10.04;70.15
76416;BME280;65248;55.686;37.678;2022-12-04T15:51:05;102956.06;;;-9.71;70.29
76416;BME280;65248;55.686;37.678;2022-12-04T15:53:35;102939.66;;;-9.82;70.46
76416;BME280;65248;55.686;37.678;2022-12-04T15:56:07;102969.03;;;-9.74;69.77
76416;BME280;65248;55.686;37.678;2022-12-04T15:58:38;102953.50;;;-9.80;69.01
76416;BME280;65248;55.686;37.678;2022-12-04T16:01:06;102943.16;;;-9.98;69.67
76416;BME280;65248;55.686;37.678;2022-12-04T16:06:07;102969.94;;;-9.79;69.47
76416;BME280;65248;55.686;37.678;2022-12-04T16:08:36;102969.94;;;-9.82;68.95
76416;BME280;65248;55.686;37.678;2022-12-04T16:11:06;102977.72;;;-9.81;69.86
76416;BME280;65248;55.686;37.678;2022-12-04T16:13:36;102958.72;;;-9.92;70.52
76416;BME280;65248;55.686;37.678;2022-12-04T16:16:19;102977.69;;;-9.78;70.48
76416;BME280;65248;55.686;37.678;2022-12-04T16:18:45;102970.78;;;-9.76;68.92
76416;BME280;65248;55.686;37.678;2022-12-04T16:21:16;102925.09;;;-10.16;69.80
76416;BME280;65248;55.686;37.678;2022-12-04T16:23:42;102982.03;;;-9.81;68.94
76416;BME280;65248;55.686;37.678;2022-12-04T16:26:12;102982.91;;;-9.87;69.18
76416;BME280;65248;55.686;37.678;2022-12-04T16:28:37;102920.75;;;-10.20;70.13
76416;BME280;65248;55.686;37.678;2022-12-04T16:31:03;102977.72;;;-9.81;69.17
76416;BME280;65248;55.686;37.678;2022-12-04T16:33:28;102968.19;;;-9.79;69.96
76416;BME280;65248;55.686;37.678;2022-12-04T16:35:54;102968.19;;;-9.82;69.79
76416;BME280;65248;55.686;37.678;2022-12-04T16:38:19;102958.72;;;-9.86;69.71
76416;BME280;65248;55.686;37.678;2022-12-04T16:40:45;102962.16;;;-9.87;68.72
76416;BME280;65248;55.686;37.678;2022-12-04T16:43:13;102963.00;;;-9.77;69.45
76416;BME280;65248;55.686;37.678;2022-12-04T16:45:47;102955.22;;;-9.83;70.07
76416;BME280;65248;55.686;37.678;2022-12-04T16:48:14;102972.56;;;-9.93;69.09
76416;BME280;65248;55.686;37.678;2022-12-04T16:50:40;102963.00;;;-9.80;69.04
76416;BME280;65248;55.686;37.678;2022-12-04T16:53:05;102936.25;;;-9.96;68.31
76416;BME280;65248;55.686;37.678;2022-12-04T16:55:37;102964.72;;;-9.76;68.98
76416;BME280;65248;55.686;37.678;2022-12-04T16:58:03;102949.19;;;-9.87;68.67
76416;BME280;65248;55.686;37.678;2022-12-04T17:00:29;102972.56;;;-9.90;68.86
76416;BME280;65248;55.686;37.678;2022-12-04T17:02:55;102889.72;;;-10.42;68.35
76416;BME280;65248;55.686;37.678;2022-12-04T17:05:26;102947.47;;;-9.97;69.27
76416;BME280;65248;55.686;37.678;2022-12-04T17:07:52;102959.56;;;-9.93;68.73
76416;BME280;65248;55.686;37.678;2022-12-04T17:10:18;102955.25;;;-9.85;68.34
76416;BME280;65248;55.686;37.678;2022-12-04T17:12:44;102885.34;;;-10.34;68.38
76416;BME280;65248;55.686;37.678;2022-12-04T17:15:11;102982.03;;;-9.78;67.88
76416;BME280;65248;55.686;37.678;2022-12-04T17:17:37;102936.28;;;-10.11;68.88
76416;BME280;65248;55.686;37.678;2022-12-04T17:20:09;102982.03;;;-9.80;68.68
76416;BME280;65248;55.686;37.678;2022-12-04T17:22:36;102964.75;;;-9.81;67.52
76416;BME280;65248;55.686;37.678;2022-12-04T17:25:01;102964.78;;;-9.98;68.51
76416;BME280;65248;55.686;37.678;2022-12-04T17:27:27;102963.88;;;-9.89;68.53
76416;BME280;65248;55.686;37.678;2022-12-04T17:29:52;102976.00;;;-9.85;68.48
76416;BME280;65248;55.686;37.678;2022-12-04T17:32:17;102966.47;;;-9.88;69.18
76416;BME280;65248;55.686;37.678;2022-12-04T17:34:43;102950.09;;;-10.09;68.62
76416;BME280;65248;55.686;37.678;2022-12-04T17:37:08;102955.28;;;-10.00;69.26
76416;BME280;65248;55.686;37.678;2022-12-04T17:39:34;102958.72;;;-9.98;68.24
76416;BME280;65248;55.686;37.678;2022-12-04T17:41:59;102958.72;;;-10.04;68.46
76416;BME280;65248;55.686;37.678;2022-12-04T17:44:25;102932.91;;;-10.33;68.07
76416;BME280;65248;55.686;37.678;2022-12-04T17:46:50;102928.59;;;-10.31;68.76
76416;BME280;65248;55.686;37.678;2022-12-04T17:49:17;102922.50;;;-10.19;68.73
76416;BME280;65248;55.686;37.678;2022-12-04T17:51:43;102938.03;;;-10.10;68.15
76416;BME280;65248;55.686;37.678;2022-12-04T17:54:10;102950.13;;;-10.12;69.89
76416;BME280;65248;55.686;37.678;2022-12-04T17:56:36;102848.25;;;-10.66;69.21
76416;BME280;65248;55.686;37.678;2022-12-04T17:59:03;102944.94;;;-10.11;69.20
76416;BME280;65248;55.686;37.678;2022-12-04T18:01:29;102944.97;;;-10.24;68.70
76416;BME280;65248;55.686;37.678;2022-12-04T18:03:57;102920.75;;;-10.19;69.77
76416;BME280;65248;55.686;37.678;2022-12-04T18:06:29;102945.84;;;-10.18;69.35
76416;BME280;65248;55.686;37.678;2022-12-04T18:08:56;102946.66;;;-10.08;68.46
76416;BME280;65248;55.686;37.678;2022-12-04T18:11:24;102942.31;;;-10.08;68.71
76416;BME280;65248;55.686;37.678;2022-12-04T18:13:56;102890.59;;;-10.59;69.07
76416;BME280;65248;55.686;37.678;2022-12-04T18:16:21;102946.72;;;-10.23;69.09
76416;BME280;65248;55.686;37.678;2022-12-04T18:18:47;102841.41;;;-10.88;68.21
76416;BME280;65248;55.686;37.678;2022-12-04T18:21:13;102939.78;;;-10.30;68.96
76416;BME280;65248;55.686;37.678;2022-12-04T18:23:40;102918.22;;;-10.45;69.55
76416;BME280;65248;55.686;37.678;2022-12-04T18:26:16;102945.84;;;-10.28;69.85
76416;BME280;65248;55.686;37.678;2022-12-04T18:28:42;102922.53;;;-10.38;70.29
76416;BME280;65248;55.686;37.678;2022-12-04T18:31:09;102917.34;;;-10.50;70.25
76416;BME280;65248;55.686;37.678;2022-12-04T18:33:37;102939.81;;;-10.34;69.34
76416;BME280;65248;55.686;37.678;2022-12-04T18:36:04;102945.88;;;-10.31;69.26
76416;BME280;65248;55.686;37.678;2022-12-04T18:38:30;102932.91;;;-10.44;70.58
76416;BME280;65248;55.686;37.678;2022-12-04T18:41:05;102943.25;;;-10.41;69.43
76416;BME280;65248;55.686;37.678;2022-12-04T18:43:35;102905.28;;;-10.54;70.68
76416;BME280;65248;55.686;37.678;2022-12-04T18:46:03;102905.25;;;-10.45;70.03
76416;BME280;65248;55.686;37.678;2022-12-04T18:48:29;102922.56;;;-10.47;70.72
76416;BME280;65248;55.686;37.678;2022-12-04T18:50:55;102933.75;;;-10.40;70.60
76416;BME280;65248;55.686;37.678;2022-12-04T18:53:21;102931.19;;;-10.45;69.84
76416;BME280;65248;55.686;37.678;2022-12-04T18:55:46;102926.00;;;-10.48;70.18
76416;BME280;65248;55.686;37.678;2022-12-04T18:58:12;102881.09;;;-10.74;70.96
76416;BME280;65248;55.686;37.678;2022-12-04T19:00:37;102933.75;;;-10.46;70.89
76416;BME280;65248;55.686;37.678;2022-12-04T19:03:03;102920.81;;;-10.54;71.64
76416;BME280;65248;55.686;37.678;2022-12-04T19:05:30;102880.25;;;-10.79;70.83
76416;BME280;65248;55.686;37.678;2022-12-04T19:07:56;102827.59;;;-11.05;70.56
76416;BME280;65248;55.686;37.678;2022-12-04T19:10:22;102926.00;;;-10.42;70.92
76416;BME280;65248;55.686;37.678;2022-12-04T19:12:48;102884.53;;;-10.72;71.65
76416;BME280;65248;55.686;37.678;2022-12-04T19:15:16;102892.31;;;-10.66;71.10
76416;BME280;65248;55.686;37.678;2022-12-04T19:17:41;102931.19;;;-10.51;70.65
76416;BME280;65248;55.686;37.678;2022-12-04T19:20:08;102836.19;;;-11.03;71.93
76416;BME280;65248;55.686;37.678;2022-12-04T19:22:34;102919.09;;;-10.64;71.53
76416;BME280;65248;55.686;37.678;2022-12-04T19:24:59;102872.47;;;-10.97;72.28
76416;BME280;65248;55.686;37.678;2022-12-04T19:27:25;102913.91;;;-10.70;72.38
76416;BME280;65248;55.686;37.678;2022-12-04T19:29:52;102910.47;;;-10.63;71.72
76416;BME280;65248;55.686;37.678;2022-12-04T19:32:18;102929.47;;;-10.64;71.69
76416;BME280;65248;55.686;37.678;2022-12-04T19:34:44;102891.47;;;-10.89;72.11
76416;BME280;65248;55.686;37.678;2022-12-04T19:37:13;102896.66;;;-10.95;72.34
76416;BME280;65248;55.686;37.678;2022-12-04T19:39:39;102902.69;;;-10.84;71.87
76416;BME280;65248;55.686;37.678;2022-12-04T19:42:04;102894.91;;;-10.87;72.80
76416;BME280;65248;55.686;37.678;2022-12-04T19:44:30;102912.22;;;-10.68;71.61
76416;BME280;65248;55.686;37.678;2022-12-04T19:46:55;102862.97;;;-10.85;72.74
76416;BME280;65248;55.686;37.678;2022-12-04T19:49:21;102874.22;;;-10.84;72.08
76416;BME280;65248;55.686;37.678;2022-12-04T19:51:47;102900.09;;;-10.69;71.41
76416;BME280;65248;55.686;37.678;2022-12-04T19:54:13;102896.66;;;-10.74;72.16
76416;BME280;65248;55.686;37.678;2022-12-04T19:56:40;102869.88;;;-10.96;73.39
76416;BME280;65248;55.686;37.678;2022-12-04T19:59:07;102901.81;;;-10.77;72.91
76416;BME280;65248;55.686;37.678;2022-12-04T20:01:33;102910.47;;;-10.75;72.89
76416;BME280;65248;55.686;37.678;2022-12-04T20:04:01;102912.19;;;-10.77;72.14
76416;BME280;65248;55.686;37.678;2022-12-04T20:06:28;102738.72;;;-11.79;72.68
76416;BME280;65248;55.686;37.678;2022-12-04T20:08:59;102878.50;;;-10.97;73.37
76416;BME280;65248;55.686;37.678;2022-12-04T20:11:27;102886.28;;;-10.80;72.59
76416;BME280;65248;55.686;37.678;2022-12-04T20:13:53;102900.13;;;-10.84;71.73
76416;BME280;65248;55.686;37.678;2022-12-04T20:16:22;102858.63;;;-11.08;72.65
76416;BME280;65248;55.686;37.678;2022-12-04T20:18:47;102887.16;;;-10.99;72.10
76416;BME280;65248;55.686;37.678;2022-12-04T20:21:13;102893.19;;;-10.79;72.88
76416;BME280;65248;55.686;37.678;2022-12-04T20:23:49;102818.06;;;-11.29;72.19
76416;BME280;65248;55.686;37.678;2022-12-04T20:26:21;102843.97;;;-11.06;72.36
76416;BME280;65248;55.686;37.678;2022-12-04T20:28:46;102892.34;;;-10.84;73.58
76416;BME280;65248;55.686;37.678;2022-12-04T20:31:14;102878.50;;;-11.06;71.68
76416;BME280;65248;55.686;37.678;2022-12-04T20:33:41;102848.31;;;-11.21;73.32
76416;BME280;65248;55.686;37.678;2022-12-04T20:36:08;102888.03;;;-10.88;72.82
76416;BME280;65248;55.686;37.678;2022-12-04T20:38:33;102880.25;;;-10.99;73.62
76416;BME280;65248;55.686;37.678;2022-12-04T20:41:03;102894.91;;;-10.87;73.61
76416;BME280;65248;55.686;37.678;2022-12-04T20:43:29;102856.06;;;-11.14;73.12
76416;BME280;65248;55.686;37.678;2022-12-04T20:48:43;102903.56;;;-10.90;72.89
76416;BME280;65248;55.686;37.678;2022-12-04T20:51:18;102838.78;;;-11.29;72.25
76416;BME280;65248;55.686;37.678;2022-12-04T20:53:44;102868.13;;;-11.18;72.84
76416;BME280;65248;55.686;37.678;2022-12-04T20:56:10;102907.88;;;-10.99;73.16
76416;BME280;65248;55.686;37.678;2022-12-04T20:58:35;102853.44;;;-11.33;73.44
76416;BME280;65248;55.686;37.678;2022-12-04T21:01:09;102901.84;;;-10.98;72.73
76416;BME280;65248;55.686;37.678;2022-12-04T21:03:35;102894.03;;;-11.03;72.84
76416;BME280;65248;55.686;37.678;2022-12-04T21:06:01;102862.97;;;-11.21;73.70
76416;BME280;65248;55.686;37.678;2022-12-04T21:08:26;102904.41;;;-11.01;73.34
76416;BME280;65248;55.686;37.678;2022-12-04T21:11:10;102858.63;;;-11.24;73.06
76416;BME280;65248;55.686;37.678;2022-12-04T21:13:36;102854.34;;;-11.22;73.00
76416;BME280;65248;55.686;37.678;2022-12-04T21:16:20;102865.56;;;-11.20;73.83
76416;BME280;65248;55.686;37.678;2022-12-04T21:18:47;102897.50;;;-11.07;73.66
76416;BME280;65248;55.686;37.678;2022-12-04T21:21:13;102862.97;;;-11.23;73.51
76416;BME280;65248;55.686;37.678;2022-12-04T21:23:38;102865.53;;;-11.13;73.24
76416;BME280;65248;55.686;37.678;2022-12-04T21:26:04;102874.19;;;-11.19;73.35
76416;BME280;65248;55.686;37.678;2022-12-04T21:28:29;102876.78;;;-11.14;72.76
76416;BME280;65248;55.686;37.678;2022-12-04T21:31:03;102899.22;;;-11.12;73.50
76416;BME280;65248;55.686;37.678;2022-12-04T21:33:29;102859.50;;;-11.35;72.07
76416;BME280;65248;55.686;37.678;2022-12-04T21:36:03;102854.31;;;-11.28;73.88
76416;BME280;65248;55.686;37.678;2022-12-04T21:38:33;102850.88;;;-11.36;72.73
76416;BME280;65248;55.686;37.678;2022-12-04T21:40:59;102875.06;;;-11.09;73.72
76416;BME280;65248;55.686;37.678;2022-12-04T21:43:29;102834.47;;;-11.38;72.46
76416;BME280;65248;55.686;37.678;2022-12-04T21:46:06;102823.25;;;-11.26;73.68
76416;BME280;65248;55.686;37.678;2022-12-04T21:48:33;102823.25;;;-11.34;73.33
76416;BME280;65248;55.686;37.678;2022-12-04T21:50:59;102859.50;;;-11.08;73.76
76416;BME280;65248;55.686;37.678;2022-12-04T21:53:25;102822.41;;;-11.27;73.69
76416;BME280;65248;55.686;37.678;2022-12-04T21:55:53;102797.38;;;-11.47;72.77
76416;BME280;65248;55.686;37.678;2022-12-04T21:58:21;102832.75;;;-11.21;73.45
76416;BME280;65248;55.686;37.678;2022-12-04T22:00:47;102835.34;;;-11.11;73.63
76416;BME280;65248;55.686;37.678;2022-12-04T22:03:13;102815.50;;;-11.25;72.65
76416;BME280;65248;55.686;37.678;2022-12-04T22:05:39;102773.22;;;-11.52;72.77
76416;BME280;65248;55.686;37.678;2022-12-04T22:08:06;102853.47;;;-11.02;72.10
76416;BME280;65248;55.686;37.678;2022-12-04T22:10:33;102823.25;;;-11.26;72.89
76416;BME280;65248;55.686;37.678;2022-12-04T22:12:58;102844.84;;;-11.10;74.02
76416;BME280;65248;55.686;37.678;2022-12-04T22:15:24;102839.66;;;-11.01;73.16
76416;BME280;65248;55.686;37.678;2022-12-04T22:17:49;102837.94;;;-10.96;73.12
76416;BME280;65248;55.686;37.678;2022-12-04T22:20:15;102759.41;;;-11.42;72.43
76416;BME280;65248;55.686;37.678;2022-12-04T22:22:41;102748.19;;;-11.55;72.56
76416;BME280;65248;55.686;37.678;2022-12-04T22:25:07;102809.44;;;-11.37;72.96
76416;BME280;65248;55.686;37.678;2022-12-04T22:27:33;102798.25;;;-11.26;72.29
76416;BME280;65248;55.686;37.678;2022-12-04T22:29:58;102810.31;;;-11.15;73.22
76416;BME280;65248;55.686;37.678;2022-12-04T22:32:23;102820.66;;;-11.03;73.57
76416;BME280;65248;55.686;37.678;2022-12-04T22:34:49;102750.78;;;-11.50;73.79
76416;BME280;65248;55.686;37.678;2022-12-04T22:37:14;102758.53;;;-11.52;72.67
76416;BME280;65248;55.686;37.678;2022-12-04T22:39:40;102736.13;;;-11.56;73.81
76416;BME280;65248;55.686;37.678;2022-12-04T22:42:05;102804.28;;;-11.04;73.32
76416;BME280;65248;55.686;37.678;2022-12-04T22:44:31;102820.66;;;-11.08;72.03
76416;BME280;65248;55.686;37.678;2022-12-04T22:46:56;102749.06;;;-11.60;71.85
76416;BME280;65248;55.686;37.678;2022-12-04T22:49:22;102810.31;;;-11.19;72.12
76416;BME280;65248;55.686;37.678;2022-12-04T22:51:47;102814.66;;;-11.19;72.42
76416;BME280;65248;55.686;37.678;2022-12-04T22:54:13;102807.72;;;-11.12;73.44
76416;BME280;65248;55.686;37.678;2022-12-04T22:56:38;102794.78;;;-11.28;71.91
76416;BME280;65248;55.686;37.678;2022-12-04T22:59:04;102763.72;;;-11.40;73.18
76416;BME280;65248;55.686;37.678;2022-12-04T23:01:31;102818.94;;;-11.07;73.40
76416;BME280;65248;55.686;37.678;2022-12-04T23:03:58;102768.88;;;-11.28;72.87
76416;BME280;65248;55.686;37.678;2022-12-04T23:06:25;102787.03;;;-11.20;73.20
76416;BME280;65248;55.686;37.678;2022-12-04T23:08:56;102776.66;;;-11.34;72.17
76416;BME280;65248;55.686;37.678;2022-12-04T23:11:22;102791.34;;;-11.14;73.04
76416;BME280;65248;55.686;37.678;2022-12-04T23:13:50;102729.22;;;-11.51;73.09
76416;BME280;65248;55.686;37.678;2022-12-04T23:16:16;102649.00;;;-12.21;72.25
76416;BME280;65248;55.686;37.678;2022-12-04T23:18:41;102789.59;;;-11.06;73.24
76416;BME280;65248;55.686;37.678;2022-12-04T23:21:09;102794.78;;;-11.06;72.53
76416;BME280;65248;55.686;37.678;2022-12-04T23:23:36;102787.84;;;-11.13;71.50
76416;BME280;65248;55.686;37.678;2022-12-04T23:26:11;102791.31;;;-11.05;72.79
76416;BME280;65248;55.686;37.678;2022-12-04T23:28:37;102771.50;;;-11.14;71.66
76416;BME280;65248;55.686;37.678;2022-12-04T23:31:03;102800.81;;;-11.10;72.75
76416;BME280;65248;55.686;37.678;2022-12-04T23:33:29;102780.09;;;-11.16;73.12
76416;BME280;65248;55.686;37.678;2022-12-04T23:35:57;102786.16;;;-11.14;71.54
76416;BME280;65248;55.686;37.678;2022-12-04T23:38:24;102791.34;;;-11.14;72.34
76416;BME280;65248;55.686;37.678;2022-12-04T23:40:50;102797.38;;;-11.12;73.08
76416;BME280;65248;55.686;37.678;2022-12-04T23:43:24;102771.47;;;-11.19;73.16
76416;BME280;65248;55.686;37.678;2022-12-04T23:45:49;102775.81;;;-11.30;73.13
76416;BME280;65248;55.686;37.678;2022-12-04T23:48:14;102769.75;;;-11.33;72.63
76416;BME280;65248;55.686;37.678;2022-12-04T23:50:40;102705.06;;;-11.65;72.39
76416;BME280;65248;55.686;37.678;2022-12-04T23:53:05;102754.22;;;-11.44;73.05
76416;BME280;65248;55.686;37.678;2022-12-04T23:55:31;102763.72;;;-11.43;72.44
76416;BME280;65248;55.686;37.678;2022-12-04T23:57:56;102748.19;;;-11.43;72.25
